Flight Track Log - Related Links

Times and Time Zones

All times are in EDT time to prevent confusion due to time zone crossing. See the N600TR flight status page for this flight to view local times or setup timezone preferences in your user account.

Time Position Orientation Groundspeed Altitude Reporting Facility
EDT Latitude Longitude Course Direction KTS MPH feet Rate Location/Type
Thu 08:33:39 PM 33.5747 -86.7367 140° Southeast 174 200 1,500  Level Atlanta Center
Thu 08:34:27 PM 33.5842 -86.6869 77° East 225 259 2,800 1,619 Climbing Atlanta Center
Thu 08:35:45 PM 33.5633 -86.5817 103° East 253 291 4,900 2,087 Climbing Atlanta Center
Thu 08:36:45 PM 33.5381 -86.4961 109° East 266 306 7,600 2,450 Climbing Atlanta Center
Thu 08:37:45 PM 33.5147 -86.4083 108° East 266 306 9,800 1,750 Climbing Atlanta Center
Thu 08:38:45 PM 33.4894 -86.3131 108° East 278 320 11,100 1,200 Climbing Atlanta Center
Thu 08:39:00 PM 33.5840 -86.2323 140° Southeast  Level Estimated
Thu 08:39:45 PM 33.4558 -86.2025 110° East 315 362 12,200  Level Atlanta Center
Thu 08:40:45 PM 33.4164 -86.0794 111° Southeast 358 412 13,800 1,450 Climbing Atlanta Center
Thu 08:41:45 PM 33.3806 -85.9619 110° East 375 432 15,100 600 Climbing Atlanta Center
Thu 08:42:45 PM 33.3489 -85.8442 108° East 375 432 15,000 -50 Descending Atlanta Center
Thu 08:43:45 PM 33.3169 -85.7442 111° Southeast 367 422 15,000  Level Atlanta Center
Thu 08:44:45 PM 33.2853 -85.6192 107° East 362 417 15,000  Level Atlanta Center
Thu 08:45:45 PM 33.2533 -85.5019 108° East 357 411 15,000 -100 Level Atlanta Center
Thu 08:46:45 PM 33.2419 -85.3950 97° East 357 411 14,800 -500 Descending Atlanta Center
Thu 08:47:45 PM 33.2308 -85.2681 96° East 357 411 14,000 -400 Descending Atlanta Center
Thu 08:48:45 PM 33.2175 -85.1461 97° East 357 411 14,000 -350 Level Atlanta Center
Thu 08:49:45 PM 33.2183 -85.0247 89° East 362 417 13,300 -1,000 Descending Atlanta Center
Thu 08:50:45 PM 33.2756 -84.9208 57° Northeast 357 411 12,000 -650 Descending Atlanta Center
Thu 08:51:45 PM 33.3283 -84.8294 55° Northeast 346 398 12,000  Level Atlanta Center
Thu 08:52:45 PM 33.3833 -84.7303 56° Northeast 346 398 12,000  Level Atlanta Center
Thu 08:53:45 PM 33.4483 -84.6389 50° Northeast 352 405 12,000  Level Atlanta Center
Thu 08:54:45 PM 33.5114 -84.5569 47° Northeast 346 398 12,000 -550 Level Atlanta Center
Thu 08:55:45 PM 33.5306 -84.4675 76° East 274 315 10,900 -1,300 Descending Atlanta Center
Thu 08:56:45 PM 33.5267 -84.3803 93° East 262 302 9,400 -1,650 Descending Atlanta Center
Thu 08:57:45 PM 33.5206 -84.3031 95° East 245 282 7,600 -1,732 Descending Atlanta Center
Thu 08:59:14 PM 33.5667 -84.2333 52° Northeast 199 229 5,100 -1,611 Descending Atlanta TRACON
Thu 09:00:14 PM 33.6167 -84.2500 344° North 179 206 3,600 -1,263 Descending Atlanta TRACON
Thu 09:01:08 PM 33.6333 -84.3000 292° West 158 182 2,700 -833 Descending Atlanta TRACON
Thu 09:02:02 PM 33.6333 -84.3500 270° West 152 175 2,100 -684 Descending Atlanta TRACON
Thu 09:03:02 PM 33.6333 -84.4000 270° West 154 177 1,400 -700 Descending Atlanta TRACON

Login

Don't have an account? Register now (free) for customized features, flight alerts, and more!